Maribor, Slovenia

3:49 PM CET on February 14, 2016 (GMT +0100)
Maribor | | Change Station
CLOSE
Current Station
Airport
Location: Maribor,
Elevation: 869 ft
Nearby Weather Stations

Elev 869 ft 46.48 °N, 15.68 °E | Updated 19 minutes ago

Light Rain
Light Rain
48 °F
Feels Like 48 °F
N
4
Wind Variable Wind from ESE

Today
High -- | Low -- °F
--% Chance of Precip.
Yesterday
High -- | Low -- °F
Precip. -- in
Pressure 29.30 in
Visibility 3.7 miles
Clouds Few 1000 ft
Overcast 3000 ft
Dew Point 45 °F
Humidity 87%
Rainfall 0.00 in
Snow Depth Not available.
7:03 AM 5:20 PM
Waxing Crescent, 42% visible
METAR LJMB 141430Z 11003KT 6000 -RA FEW010 OVC030 09/07 Q0992
Pressure 29.30 in
Visibility 3.7 miles
Clouds Few 1000 ft
Overcast 3000 ft
Dew Point 45 °F
Humidity 87%
Rainfall 0.00 in
Snow Depth Not available.
7:03 AM 5:20 PM
Waxing Crescent, 42% visible
METAR LJMB 141430Z 11003KT 6000 -RA FEW010 OVC030 09/07 Q0992

10-Day Weather Forecast

Almanac

Astronomy

Feb. 14, 2016 Rise Set
Actual Time
Civil Twilight
Nautical Twilight
Astronomical Twilight
Moon
Length of Visible Light
Length of Day
Tomorrow will be .
, % of the Moon is Illuminated

Today's Extremes

Country Highs Country Lows

Community

WunderPhotos

Upload Photos

1,892,781 photos uploaded!

WunderBlog® & News

Nearby

Air Quality

  Air Quality AQ Index Pollutant
Not available.

Snow Depth

Station Depth Elevation

Earthquake Activity

City Distance Mag. Time & Date
Minimum magnitude displayed is 2.5.

Coastal Water Temperatures

Place Temperature

Stations

Nearby Weather Stations

Station Location Temp. Windchill Dew Point Humidity Wind Precip. Elev Updated Type